Time;durP1;ratioP1;P1;durP2;ratioP2;P2;SDS_P1;SDS_P2;PMS_P1;PMS_P2;Temp;Humidity;BMP_temperature;BMP_pressure;BME280_temperature;BME280_humidity;BME280_pressure;Samples;Min_cycle;Max_cycle;Signal;HPM_P1;HPM_P2
2022/06/21 00:00:20;;;;;;;4.67;2.63;;;;;;;13.00;71.46;100831.34;4977750;28;20685;-82
2022/06/21 00:02:50;;;;;;;4.10;2.80;;;;;;;12.98;71.65;100837.78;4979092;28;20223;-82
2022/06/21 00:05:23;;;;;;;6.07;2.87;;;;;;;12.94;71.87;100830.94;4988361;28;20207;-81
2022/06/21 00:07:50;;;;;;;7.07;2.90;;;;;;;12.92;71.90;100825.69;4987247;28;20667;-81
2022/06/21 00:10:20;;;;;;;7.33;2.80;;;;;;;12.90;71.98;100832.94;4987430;28;20712;-82
2022/06/21 00:12:46;;;;;;;5.30;2.90;;;;;;;12.89;72.04;100835.75;4985669;28;20224;-81
2022/06/21 00:15:13;;;;;;;3.80;2.90;;;;;;;12.87;72.50;100833.19;4987841;28;20774;-81
2022/06/21 00:17:42;;;;;;;5.67;3.70;;;;;;;12.86;72.30;100842.16;4984918;28;20236;-82
2022/06/21 00:20:18;;;;;;;4.90;3.30;;;;;;;12.85;72.48;100845.81;4981238;28;20203;-81
2022/06/21 00:22:45;;;;;;;6.70;3.20;;;;;;;12.83;72.70;100847.72;4986758;28;20233;-82
2022/06/21 00:25:17;;;;;;;4.87;3.30;;;;;;;12.82;73.16;100851.34;4989164;28;20214;-81
2022/06/21 00:27:44;;;;;;;5.60;3.40;;;;;;;12.80;73.20;100853.28;4989107;28;20206;-81
2022/06/21 00:30:11;;;;;;;3.63;3.17;;;;;;;12.78;73.16;100850.72;4979361;28;20603;-82
2022/06/21 00:32:38;;;;;;;9.30;3.40;;;;;;;12.77;73.26;100853.47;4981927;28;20363;-81
2022/06/21 00:35:09;;;;;;;4.60;2.83;;;;;;;12.76;73.48;100854.44;4985939;28;20209;-81
2022/06/21 00:37:37;;;;;;;7.27;3.27;;;;;;;12.74;73.58;100859.91;4988820;28;20253;-82
2022/06/21 00:40:16;;;;;;;4.20;2.97;;;;;;;12.73;73.77;100846.63;4990444;28;20203;-82
2022/06/21 00:42:46;;;;;;;7.93;3.30;;;;;;;12.70;73.92;100841.53;4988021;28;20241;-81
2022/06/21 00:45:31;;;;;;;5.80;3.10;;;;;;;12.68;74.00;100843.44;4975050;28;20874;-81
2022/06/21 00:48:02;;;;;;;6.27;3.57;;;;;;;12.66;73.92;100834.69;4976414;28;20730;-81
2022/06/21 00:50:32;;;;;;;8.70;3.57;;;;;;;12.64;74.24;100836.59;4985761;28;20226;-81
2022/06/21 00:53:07;;;;;;;7.20;3.50;;;;;;;12.62;74.43;100834.03;4982511;28;20242;-82
2022/06/21 00:55:40;;;;;;;5.33;3.80;;;;;;;12.62;74.49;100830.50;4987199;28;20198;-82
2022/06/21 00:58:11;;;;;;;5.47;2.83;;;;;;;12.60;74.59;100829.75;4982638;28;20571;-82
2022/06/21 01:00:46;;;;;;;7.57;3.53;;;;;;;12.58;74.66;100831.66;4989288;28;20212;-82
2022/06/21 01:03:18;;;;;;;5.57;3.10;;;;;;;12.57;74.71;100832.63;4989678;28;20227;-81
2022/06/21 01:05:46;;;;;;;7.03;3.17;;;;;;;12.55;74.84;100827.38;4986146;28;20220;-81
2022/06/21 01:08:21;;;;;;;5.03;3.00;;;;;;;12.52;74.89;100828.47;4987641;28;20220;-82
2022/06/21 01:10:52;;;;;;;7.03;3.43;;;;;;;12.49;74.86;100831.34;4984688;28;20214;-81
2022/06/21 01:13:23;;;;;;;5.10;3.27;;;;;;;12.44;74.71;100821.94;4987067;28;20228;-81
2022/06/21 01:15:52;;;;;;;7.37;3.30;;;;;;;12.42;75.07;100821.19;4986732;28;20294;-81
2022/06/21 01:18:21;;;;;;;7.40;3.33;;;;;;;12.40;75.14;100818.59;4985780;28;20233;-82
2022/06/21 01:20:51;;;;;;;8.43;3.50;;;;;;;12.38;75.25;100819.66;4979866;28;20210;-81
2022/06/21 01:23:36;;;;;;;5.83;3.07;;;;;;;12.34;75.44;100819.03;4989386;28;20224;-81
2022/06/21 01:26:15;;;;;;;7.27;3.00;;;;;;;12.33;75.75;100825.34;4986709;28;20207;-81
2022/06/21 01:28:45;;;;;;;5.20;3.33;;;;;;;12.31;75.75;100829.06;4988579;28;20661;-81
2022/06/21 01:31:11;;;;;;;5.70;3.47;;;;;;;12.28;75.78;100839.97;4988664;28;20203;-81
2022/06/21 01:33:42;;;;;;;8.13;3.03;;;;;;;12.25;75.81;100845.50;4982328;28;20591;-82
2022/06/21 01:36:12;;;;;;;6.90;3.53;;;;;;;12.21;75.93;100850.19;4984656;28;20667;-81
2022/06/21 01:38:45;;;;;;;5.10;2.70;;;;;;;12.17;76.11;100838.03;4986944;28;20212;-81
2022/06/21 01:41:16;;;;;;;7.23;3.30;;;;;;;12.12;76.37;100835.66;4981416;28;20577;-82
2022/06/21 01:43:46;;;;;;;9.17;3.53;;;;;;;12.10;76.69;100831.38;4987692;28;20234;-81
2022/06/21 01:46:18;;;;;;;6.77;3.43;;;;;;;12.07;76.90;100828.91;4989698;28;20298;-81
2022/06/21 01:48:48;;;;;;;5.03;2.93;;;;;;;12.06;76.81;100841.38;4985106;28;20391;-83
2022/06/21 01:51:18;;;;;;;7.40;2.93;;;;;;;12.03;77.31;100830.06;4982691;28;20201;-81
2022/06/21 01:53:45;;;;;;;11.80;2.90;;;;;;;12.03;77.35;100832.72;4988685;28;20369;-83
2022/06/21 01:56:16;;;;;;;5.63;3.07;;;;;;;12.02;77.43;100845.22;4992821;28;20203;-82
2022/06/21 01:58:48;;;;;;;7.23;2.73;;;;;;;12.03;77.45;100843.41;4985032;28;20218;-81
2022/06/21 02:01:20;;;;;;;6.80;2.63;;;;;;;12.03;77.57;100846.06;4981412;28;20206;-81
2022/06/21 02:03:52;;;;;;;3.83;2.37;;;;;;;12.03;77.41;100846.94;4981539;28;20602;-82
2022/06/21 02:06:21;;;;;;;5.13;2.63;;;;;;;12.02;77.36;100847.88;4982973;28;20594;-82
2022/06/21 02:08:52;;;;;;;4.53;2.83;;;;;;;12.01;77.43;100853.31;4983897;28;20211;-81
2022/06/21 02:11:27;;;;;;;8.87;3.70;;;;;;;11.99;77.59;100853.44;4983447;28;20587;-82
2022/06/21 02:16:41;;;;;;;7.30;2.60;;;;;;;11.97;77.86;100851.84;4983462;28;20209;-84
2022/06/21 02:19:15;;;;;;;8.07;2.80;;;;;;;11.97;77.92;100843.81;4989928;28;20225;-83
2022/06/21 02:21:42;;;;;;;11.90;2.60;;;;;;;11.94;78.15;100847.53;4990057;28;20203;-83
2022/06/21 02:24:13;;;;;;;5.27;2.80;;;;;;;11.93;78.14;100843.16;4990464;28;20204;-83
2022/06/21 02:26:41;;;;;;;5.90;2.63;;;;;;;11.90;78.15;100835.34;4989042;28;20210;-84
2022/06/21 02:29:13;;;;;;;7.57;3.17;;;;;;;11.89;78.19;100832.78;4985555;28;20253;-84
2022/06/21 02:31:40;;;;;;;5.17;2.57;;;;;;;11.87;78.52;100816.00;4989168;28;20199;-83
2022/06/21 02:34:16;;;;;;;10.33;2.77;;;;;;;11.86;78.34;100814.28;4987204;28;20235;-84
2022/06/21 02:36:48;;;;;;;7.57;3.00;;;;;;;11.83;78.33;100807.34;4984475;28;20209;-83
2022/06/21 02:39:19;;;;;;;6.03;2.47;;;;;;;11.77;77.75;100808.63;4991347;28;20280;-83
2022/06/21 02:41:50;;;;;;;4.97;2.70;;;;;;;11.69;77.48;100810.03;4985196;28;20206;-83
2022/06/21 02:44:24;;;;;;;3.70;2.60;;;;;;;11.61;77.34;100812.38;4987723;28;20669;-83
2022/06/21 02:46:54;;;;;;;5.73;2.37;;;;;;;11.53;77.08;100812.84;4992132;28;20583;-84
2022/06/21 02:49:25;;;;;;;6.37;2.00;;;;;;;11.45;77.15;100813.38;4980431;28;20210;-83
2022/06/21 02:51:57;;;;;;;6.03;2.13;;;;;;;11.37;77.17;100809.47;4992785;28;20236;-83
2022/06/21 02:54:26;;;;;;;6.07;2.53;;;;;;;11.29;77.50;100817.94;4982755;28;20236;-83
2022/06/21 02:56:58;;;;;;;6.00;2.67;;;;;;;11.28;77.94;100828.72;4987222;28;20214;-83
2022/06/21 02:59:27;;;;;;;7.40;2.93;;;;;;;11.27;78.23;100835.00;4981968;28;21241;-82
2022/06/21 03:01:58;;;;;;;10.47;3.00;;;;;;;11.28;78.42;100831.41;4985335;28;20645;-82
2022/06/21 03:04:33;;;;;;;5.93;2.87;;;;;;;11.29;78.96;100833.94;4982586;28;20205;-83
2022/06/21 03:07:00;;;;;;;5.17;2.40;;;;;;;11.31;79.39;100825.84;4983747;28;20223;-83
2022/06/21 03:09:27;;;;;;;7.80;2.63;;;;;;;11.33;79.82;100823.94;4981504;28;20214;-83
2022/06/21 03:12:00;;;;;;;6.77;2.50;;;;;;;11.34;80.05;100833.66;4979204;28;20220;-83
2022/06/21 03:14:30;;;;;;;5.40;2.97;;;;;;;11.35;79.56;100828.22;4986925;28;20209;-83
2022/06/21 03:17:00;;;;;;;8.60;3.00;;;;;;;11.35;79.85;100844.22;4985253;28;20211;-82
2022/06/21 03:19:31;;;;;;;7.90;2.50;;;;;;;11.35;80.12;100844.22;4986748;28;20223;-82
2022/06/21 03:21:58;;;;;;;4.27;2.50;;;;;;;11.35;80.12;100836.22;4978957;28;20213;-83
2022/06/21 03:24:27;;;;;;;5.57;2.57;;;;;;;11.35;80.34;100827.38;4985576;28;20215;-82
2022/06/21 03:26:59;;;;;;;7.70;3.00;;;;;;;11.36;80.62;100829.09;4984681;28;20200;-83
2022/06/21 03:29:29;;;;;;;7.37;2.70;;;;;;;11.36;80.43;100829.09;4983870;28;20211;-83
2022/06/21 03:31:55;;;;;;;5.00;2.47;;;;;;;11.36;80.63;100829.09;4981582;28;20207;-83
2022/06/21 03:34:25;;;;;;;5.73;2.03;;;;;;;11.37;80.69;100828.13;4985617;28;20220;-83
2022/06/21 03:36:51;;;;;;;10.37;3.53;;;;;;;11.37;80.82;100815.66;4981464;28;20212;-83
2022/06/21 03:41:42;;;;;;;5.13;2.50;;;;;;;11.38;80.84;100811.19;4986278;28;20232;-84
2022/06/21 03:42:08;;;;;;;7.40;2.97;;;;;;;11.39;80.84;100811.09;4980431;28;21936;-84
2022/06/21 03:44:40;;;;;;;8.07;2.60;;;;;;;11.40;80.83;100823.47;4979848;28;20199;-82
2022/06/21 03:47:12;;;;;;;10.50;2.50;;;;;;;11.41;81.14;100833.19;4983632;28;20239;-82
2022/06/21 03:49:43;;;;;;;6.87;2.60;;;;;;;11.43;81.24;100830.41;4983883;28;20215;-82
2022/06/21 03:52:41;;;;;;;11.90;2.97;;;;;;;11.43;81.13;100836.59;4983091;28;20807;-82
2022/06/21 03:55:12;;;;;;;4.50;2.07;;;;;;;11.44;81.31;100848.13;4986182;28;20568;-83
2022/06/21 03:57:45;;;;;;;7.40;2.50;;;;;;;11.44;81.41;100843.66;4979956;28;20209;-82
2022/06/21 04:00:15;;;;;;;8.73;2.53;;;;;;;11.45;81.52;100833.84;4982976;28;20213;-83
2022/06/21 04:02:50;;;;;;;8.10;2.50;;;;;;;11.47;81.83;100834.56;4979381;28;20231;-82
2022/06/21 04:05:24;;;;;;;9.50;2.30;;;;;;;11.49;81.68;100840.66;4984348;28;20219;-83
2022/06/21 04:07:57;;;;;;;8.17;2.20;;;;;;;11.50;81.54;100837.03;4974947;28;20215;-83
2022/06/21 04:10:28;;;;;;;6.93;2.37;;;;;;;11.53;81.67;100842.19;4975770;28;20222;-83
2022/06/21 04:12:58;;;;;;;16.00;3.10;;;;;;;11.56;81.94;100835.81;4980634;28;20256;-84
2022/06/21 04:15:33;;;;;;;6.63;2.97;;;;;;;11.58;82.35;100836.56;4978809;28;20219;-84
2022/06/21 04:18:06;;;;;;;6.53;3.07;;;;;;;11.60;82.41;100840.84;4977635;28;20211;-83
2022/06/21 04:20:40;;;;;;;8.23;2.50;;;;;;;11.63;82.31;100831.81;4985232;28;20217;-83
2022/06/21 04:23:13;;;;;;;13.27;3.30;;;;;;;11.65;82.27;100828.06;4984547;28;20234;-83
2022/06/21 04:25:46;;;;;;;6.60;2.87;;;;;;;11.67;82.26;100825.28;4983102;28;20202;-83
2022/06/21 04:28:20;;;;;;;9.03;2.87;;;;;;;11.70;82.56;100833.94;4985767;28;20213;-83
2022/06/21 04:30:56;;;;;;;7.43;2.53;;;;;;;11.74;82.09;100823.94;4984544;28;20301;-84
2022/06/21 04:33:27;;;;;;;9.47;2.80;;;;;;;11.77;82.26;100821.97;4984791;28;20250;-84
2022/06/21 04:35:58;;;;;;;6.03;2.20;;;;;;;11.81;81.99;100822.63;4982912;28;20196;-83
2022/06/21 04:38:32;;;;;;;11.30;2.87;;;;;;;11.84;82.15;100822.41;4980319;28;20215;-83
2022/06/21 04:41:05;;;;;;;9.33;2.60;;;;;;;11.87;81.89;100814.19;4991992;28;20255;-85
2022/06/21 04:43:40;;;;;;;8.00;2.40;;;;;;;11.89;81.67;100822.09;4984656;28;20232;-83
2022/06/21 04:46:14;;;;;;;7.27;1.97;;;;;;;11.92;81.57;100832.59;4986690;28;20204;-83
2022/06/21 04:48:47;;;;;;;8.93;2.63;;;;;;;11.94;81.39;100828.00;4984185;28;20226;-83
2022/06/21 04:51:18;;;;;;;6.03;2.20;;;;;;;11.98;81.37;100834.88;4988894;28;20206;-83
2022/06/21 04:53:52;;;;;;;6.03;2.37;;;;;;;12.01;81.20;100832.81;4989099;28;20260;-83
2022/06/21 04:56:28;;;;;;;6.07;2.60;;;;;;;12.03;81.14;100838.06;4988307;28;20245;-82
2022/06/21 04:58:55;;;;;;;10.03;2.70;;;;;;;12.06;80.99;100851.22;4985882;28;20234;-82
2022/06/21 05:01:37;;;;;;;4.60;1.80;;;;;;;12.10;80.76;100858.91;4987470;28;20218;-83
2022/06/21 05:04:11;;;;;;;7.03;2.47;;;;;;;12.11;80.50;100846.44;4990479;28;20227;-83
2022/06/21 05:06:39;;;;;;;7.77;3.03;;;;;;;12.11;80.28;100833.94;4988943;28;20562;-84
2022/06/21 05:09:06;;;;;;;6.53;2.70;;;;;;;12.12;80.31;100835.66;4984299;28;20220;-85
2022/06/21 05:11:34;;;;;;;9.73;2.87;;;;;;;12.15;80.38;100854.13;4981507;28;20207;-84
2022/06/21 05:14:02;;;;;;;10.77;2.60;;;;;;;12.20;80.58;100851.13;4985574;28;20226;-85
2022/06/21 05:16:34;;;;;;;9.47;3.27;;;;;;;12.24;80.72;100854.47;4984380;28;20211;-84
2022/06/21 05:19:08;;;;;;;6.93;2.57;;;;;;;12.27;80.40;100854.25;4987029;28;20234;-83
2022/06/21 05:21:41;;;;;;;9.67;3.63;;;;;;;12.32;80.18;100857.50;4985671;28;20218;-83
2022/06/21 05:24:10;;;;;;;7.97;2.97;;;;;;;12.35;80.15;100847.47;4981426;28;20226;-83
2022/06/21 05:26:41;;;;;;;12.00;2.80;;;;;;;12.44;80.60;100862.00;4987739;28;20222;-82
2022/06/21 05:29:13;;;;;;;8.70;3.17;;;;;;;12.51;80.47;100863.31;4983047;28;20204;-83
2022/06/21 05:31:46;;;;;;;6.87;3.13;;;;;;;12.59;80.63;100860.94;4986899;28;20291;-84
2022/06/21 05:34:19;;;;;;;8.57;3.10;;;;;;;12.66;80.81;100861.41;4988353;28;20200;-83
2022/06/21 05:36:55;;;;;;;8.17;3.00;;;;;;;12.74;80.77;100859.91;4984328;28;20206;-83
2022/06/21 05:39:26;;;;;;;8.80;2.97;;;;;;;12.83;80.60;100853.06;4983961;28;20278;-84
2022/06/21 05:41:57;;;;;;;8.27;3.43;;;;;;;12.91;80.66;100857.88;4984862;28;20204;-82
2022/06/21 05:44:34;;;;;;;6.67;2.87;;;;;;;12.99;80.27;100856.38;4984982;28;20212;-83
2022/06/21 05:47:08;;;;;;;5.90;2.87;;;;;;;13.10;80.16;100864.50;4986215;28;20212;-83
2022/06/21 05:49:37;;;;;;;10.97;3.00;;;;;;;13.20;79.72;100867.44;4991293;28;20234;-85
2022/06/21 05:52:08;;;;;;;7.17;2.60;;;;;;;13.31;79.21;100872.00;4985789;28;20214;-82
2022/06/21 05:54:38;;;;;;;6.77;2.53;;;;;;;13.43;78.98;100874.69;4988666;28;20200;-82
2022/06/21 05:57:09;;;;;;;7.47;3.07;;;;;;;13.53;78.66;100883.75;4990111;28;20204;-83
2022/06/21 05:59:36;;;;;;;8.73;2.70;;;;;;;13.64;77.70;100895.47;4991116;28;20212;-84
2022/06/21 06:02:10;;;;;;;8.57;2.97;;;;;;;13.75;77.71;100900.94;4990784;28;20223;-82
2022/06/21 06:04:43;;;;;;;6.70;2.80;;;;;;;13.85;77.09;100878.72;4997225;28;20670;-83
2022/06/21 06:07:15;;;;;;;8.10;2.80;;;;;;;14.03;76.62;100899.75;4996376;28;20234;-84
2022/06/21 06:09:47;;;;;;;9.87;3.37;;;;;;;14.18;76.23;100895.94;4992928;28;20206;-84
2022/06/21 06:12:20;;;;;;;5.87;2.13;;;;;;;14.31;75.62;100878.00;4999129;28;20227;-83
2022/06/21 06:14:49;;;;;;;7.17;2.37;;;;;;;14.45;74.69;100885.88;4998991;28;20203;-84
2022/06/21 06:17:26;;;;;;;8.57;3.23;;;;;;;14.58;74.30;100892.00;4995406;28;20208;-84
2022/06/21 06:20:00;;;;;;;8.00;2.53;;;;;;;14.71;73.07;100886.56;4992016;28;20219;-84
2022/06/21 06:22:46;;;;;;;9.40;2.90;;;;;;;14.84;73.17;100891.84;4992136;28;20230;-84
2022/06/21 06:25:21;;;;;;;5.43;2.33;;;;;;;14.96;72.42;100890.88;4986692;28;20207;-83
2022/06/21 06:27:55;;;;;;;5.90;2.77;;;;;;;15.09;71.56;100897.00;4987928;28;20202;-83
2022/06/21 06:30:27;;;;;;;7.40;2.50;;;;;;;15.25;71.79;100893.97;4989887;28;20216;-84
2022/06/21 06:33:10;;;;;;;6.27;2.13;;;;;;;15.45;71.89;100903.13;4989410;28;20314;-83
2022/06/21 06:35:37;;;;;;;8.60;2.70;;;;;;;15.56;69.50;100898.66;4985595;28;20203;-82
2022/06/21 06:38:03;;;;;;;6.87;2.27;;;;;;;15.68;69.39;100902.16;4986411;28;20624;-84
2022/06/21 06:40:33;;;;;;;5.53;2.20;;;;;;;15.85;69.00;100898.13;4988097;28;20235;-83
2022/06/21 06:43:03;;;;;;;9.73;2.30;;;;;;;16.01;68.74;100897.72;4988974;28;20207;-83
2022/06/21 06:45:35;;;;;;;9.70;2.50;;;;;;;16.09;66.94;100906.00;4989666;28;20217;-83
2022/06/21 06:48:11;;;;;;;7.97;2.10;;;;;;;16.10;66.12;100907.72;4988387;28;20213;-83
2022/06/21 06:50:42;;;;;;;5.70;2.10;;;;;;;16.07;65.11;100908.81;4991136;28;20761;-83
2022/06/21 06:53:14;;;;;;;9.33;2.37;;;;;;;16.01;64.88;100908.44;4990030;28;20709;-83
2022/06/21 06:55:46;;;;;;;7.57;2.53;;;;;;;16.01;65.26;100905.78;4988972;28;20298;-83
2022/06/21 06:58:23;;;;;;;11.23;2.57;;;;;;;16.06;65.32;100900.88;4987012;28;20198;-83
2022/06/21 07:00:55;;;;;;;9.03;2.13;;;;;;;16.12;64.74;100914.66;4984038;28;20661;-83
2022/06/21 07:03:26;;;;;;;7.63;2.23;;;;;;;16.13;64.29;100913.66;4985937;28;20284;-83
2022/06/21 07:05:58;;;;;;;7.93;2.30;;;;;;;16.15;64.63;100921.59;4984669;28;20299;-83
2022/06/21 07:08:33;;;;;;;8.07;2.20;;;;;;;16.16;64.32;100913.41;4983466;28;20198;-84
2022/06/21 07:11:04;;;;;;;4.87;2.30;;;;;;;16.17;64.50;100916.97;4989077;28;20205;-83
2022/06/21 07:13:33;;;;;;;9.53;2.60;;;;;;;16.23;64.35;100913.78;4990411;28;20239;-84
2022/06/21 07:16:07;;;;;;;7.27;1.87;;;;;;;16.35;64.52;100909.22;4991940;28;20269;-83
2022/06/21 07:18:46;;;;;;;5.47;1.87;;;;;;;16.51;63.79;100907.78;4987385;28;20246;-83
2022/06/21 07:21:13;;;;;;;4.67;1.70;;;;;;;16.53;62.21;100921.09;4985519;28;20214;-83
2022/06/21 07:23:40;;;;;;;9.50;2.40;;;;;;;16.46;61.45;100928.84;4984970;28;20232;-83
2022/06/21 07:26:12;;;;;;;6.17;1.80;;;;;;;16.50;62.49;100927.59;4996096;28;20206;-82
2022/06/21 07:28:44;;;;;;;6.40;1.87;;;;;;;16.64;62.73;100916.59;4989530;28;20215;-83
2022/06/21 07:31:15;;;;;;;6.63;2.20;;;;;;;16.81;61.63;100925.06;4986790;28;20203;-83
2022/06/21 07:33:48;;;;;;;11.53;2.23;;;;;;;16.92;61.38;100927.69;4989462;28;20222;-83
2022/06/21 07:36:20;;;;;;;5.43;1.90;;;;;;;17.02;60.36;100926.75;4984737;28;20212;-83
2022/06/21 07:38:51;;;;;;;5.90;1.90;;;;;;;17.18;59.78;100923.63;4989200;28;20230;-83
2022/06/21 07:41:23;;;;;;;3.37;1.77;;;;;;;17.27;58.78;100920.09;4989155;28;20619;-83
2022/06/21 07:43:56;;;;;;;4.63;1.70;;;;;;;17.38;57.79;100918.34;4986826;28;20321;-83
2022/06/21 07:46:28;;;;;;;6.30;1.83;;;;;;;17.50;57.89;100914.56;4987328;28;20212;-83
2022/06/21 07:49:00;;;;;;;8.73;1.93;;;;;;;17.59;56.74;100909.19;4980472;28;20201;-83
2022/06/21 07:51:33;;;;;;;6.10;1.63;;;;;;;17.71;56.48;100928.00;4993387;28;20204;-83
2022/06/21 07:54:09;;;;;;;5.90;1.80;;;;;;;17.80;55.73;100922.63;4984180;28;20223;-83
2022/06/21 07:56:41;;;;;;;4.07;1.70;;;;;;;17.91;55.50;100919.00;4983279;28;20211;-83
2022/06/21 07:59:15;;;;;;;6.47;1.97;;;;;;;18.04;55.79;100930.38;4985908;28;20657;-83
2022/06/21 08:07:23;;;;;;;5.23;1.60;;;;;;;18.43;54.12;100923.19;4990738;28;20594;-83
2022/06/21 08:09:56;;;;;;;3.33;1.60;;;;;;;18.46;53.06;100927.44;4989247;28;20204;-84
2022/06/21 08:12:22;;;;;;;6.87;1.50;;;;;;;18.44;52.46;100927.59;4988116;28;20571;-83
2022/06/21 08:14:49;;;;;;;4.60;1.53;;;;;;;18.45;52.77;100933.84;4984184;28;20238;-83
2022/06/21 08:17:25;;;;;;;5.03;1.43;;;;;;;18.52;53.10;100930.44;4985429;28;20201;-83
2022/06/21 08:19:58;;;;;;;4.20;1.53;;;;;;;18.64;52.27;100923.06;4991795;28;20228;-83
2022/06/21 08:22:31;;;;;;;4.90;1.70;;;;;;;18.71;51.81;100914.28;4979565;28;20237;-83
2022/06/21 08:25:01;;;;;;;4.00;1.83;;;;;;;18.82;52.41;100915.09;4991895;28;20210;-84
2022/06/21 08:27:37;;;;;;;8.60;2.07;;;;;;;18.94;52.32;100912.13;4986303;28;20231;-83
2022/06/21 08:30:11;;;;;;;3.17;1.37;;;;;;;19.11;51.81;100909.69;4980832;28;20212;-83
2022/06/21 08:32:47;;;;;;;5.10;2.20;;;;;;;19.24;51.30;100915.59;4984447;28;20225;-83
2022/06/21 08:35:21;;;;;;;5.33;1.67;;;;;;;19.36;51.67;100917.97;4984431;28;20205;-83
2022/06/21 08:37:53;;;;;;;5.63;1.67;;;;;;;19.50;51.20;100915.84;4985444;28;20204;-83
2022/06/21 08:40:52;;;;;;;6.23;1.83;;;;;;;19.60;50.80;100903.97;4987440;28;20563;-82
2022/06/21 08:44:01;;;;;;;4.37;1.90;;;;;;;19.71;50.37;100900.22;4979066;28;20227;-83
2022/06/21 08:46:53;;;;;;;5.50;1.60;;;;;;;19.79;49.44;100897.63;4985219;28;20212;-84
2022/06/21 08:49:43;;;;;;;6.33;1.60;;;;;;;19.88;49.13;100904.00;4989311;28;20582;-84
2022/06/21 08:52:52;;;;;;;3.67;1.70;;;;;;;19.92;48.88;100895.41;4989371;28;20227;-84
2022/06/21 08:55:27;;;;;;;5.93;1.70;;;;;;;20.01;48.74;100890.97;4914924;29;20252;-85
2022/06/21 08:58:06;;;;;;;6.40;1.57;;;;;;;20.10;48.23;100887.34;4978007;28;20219;-84
2022/06/21 09:00:38;;;;;;;4.67;1.40;;;;;;;20.19;47.06;100891.84;4984653;28;20217;-83
2022/06/21 09:03:17;;;;;;;6.00;1.60;;;;;;;20.31;47.47;100890.59;4985272;28;20225;-83
2022/06/21 09:05:58;;;;;;;6.43;1.93;;;;;;;20.42;46.97;100886.88;4982674;28;20219;-84
2022/06/21 09:08:47;;;;;;;4.93;1.60;;;;;;;20.53;46.93;100878.50;4981211;28;20213;-83
2022/06/21 09:11:27;;;;;;;4.87;1.63;;;;;;;20.61;46.63;100878.56;4988675;28;20213;-83
2022/06/21 09:14:10;;;;;;;5.23;1.60;;;;;;;20.68;46.25;100881.50;4989692;28;20218;-83
2022/06/21 09:16:50;;;;;;;5.37;1.40;;;;;;;20.73;46.25;100873.75;4986532;28;20596;-84
2022/06/21 09:19:28;;;;;;;4.53;1.20;;;;;;;20.79;46.03;100879.38;4992996;28;20238;-84
2022/06/21 09:22:05;;;;;;;4.13;1.23;;;;;;;20.83;46.06;100874.50;4988801;28;20359;-83
2022/06/21 09:24:40;;;;;;;4.57;1.40;;;;;;;20.96;45.86;100871.41;4988930;28;20211;-83
2022/06/21 09:27:15;;;;;;;6.07;1.48;;;;;;;21.08;45.65;100873.69;4994064;28;20258;-84
2022/06/21 09:29:57;;;;;;;2.85;1.30;;;;;;;21.19;45.40;100866.28;4990863;28;20221;-84
2022/06/21 09:32:30;;;;;;;5.03;1.85;;;;;;;21.23;44.44;100871.25;4984936;28;20238;-83
2022/06/21 09:35:06;;;;;;;4.43;1.60;;;;;;;21.22;43.82;100874.13;4988982;28;21039;-85
2022/06/21 09:37:47;;;;;;;4.20;1.05;;;;;;;21.26;44.20;100875.50;4990672;28;20712;-84
2022/06/21 09:40:22;;;;;;;2.78;1.20;;;;;;;21.33;43.46;100882.81;4984634;28;20627;-83
2022/06/21 09:42:59;;;;;;;2.17;0.80;;;;;;;21.44;42.81;100876.28;4979076;28;20238;-83
2022/06/21 09:45:34;;;;;;;4.35;1.60;;;;;;;21.51;42.50;100881.88;4985918;28;20199;-83
2022/06/21 09:48:08;;;;;;;4.20;1.27;;;;;;;21.61;42.83;100882.63;4988894;28;20270;-84
2022/06/21 09:50:47;;;;;;;4.32;1.38;;;;;;;21.72;43.24;100869.63;4998000;28;20654;-84
2022/06/21 09:53:21;;;;;;;3.05;1.25;;;;;;;21.85;43.63;100861.03;4995913;28;20298;-84
2022/06/21 09:56:07;;;;;;;6.18;1.30;;;;;;;22.00;43.39;100864.84;4990450;28;20219;-84
2022/06/21 09:58:41;;;;;;;2.58;1.20;;;;;;;22.07;42.16;100855.00;4999112;28;20210;-85
2022/06/21 10:01:14;;;;;;;5.15;1.40;;;;;;;22.08;42.01;100850.44;4993789;28;20230;-84
2022/06/21 10:03:48;;;;;;;3.10;1.30;;;;;;;22.09;41.73;100855.69;4996601;28;20243;-84
2022/06/21 10:06:23;;;;;;;5.55;1.58;;;;;;;22.11;42.22;100859.09;4993990;28;20214;-84
2022/06/21 10:09:05;;;;;;;5.45;1.33;;;;;;;22.11;42.23;100856.38;4992615;28;20208;-84
2022/06/21 10:11:44;;;;;;;7.80;1.60;;;;;;;22.14;42.70;100847.91;4997802;28;20267;-85
2022/06/21 10:14:37;;;;;;;4.35;1.35;;;;;;;22.22;42.47;100841.63;5002213;28;20231;-84
2022/06/21 10:17:38;;;;;;;3.00;0.98;;;;;;;22.27;41.56;100839.28;4999228;28;20204;-84
2022/06/21 10:20:31;;;;;;;3.30;1.10;;;;;;;22.31;40.78;100821.66;4958337;28;20221;-85
2022/06/21 10:23:07;;;;;;;4.95;1.20;;;;;;;22.32;41.28;100820.63;4987240;28;20227;-84
2022/06/21 10:25:45;;;;;;;3.45;1.10;;;;;;;22.41;41.00;100821.47;4987115;28;20230;-84
2022/06/21 10:28:44;;;;;;;1.85;1.02;;;;;;;22.51;40.42;100814.00;4987313;28;20199;-84
2022/06/21 10:31:41;;;;;;;4.13;1.10;;;;;;;22.58;39.75;100817.72;4977683;28;20211;-85
2022/06/21 10:34:26;;;;;;;5.82;1.38;;;;;;;22.63;39.51;100806.38;4991188;28;20226;-83
2022/06/21 10:37:08;;;;;;;3.42;0.90;;;;;;;22.71;39.28;100806.38;4991098;28;20207;-83
2022/06/21 10:40:01;;;;;;;5.78;1.23;;;;;;;22.79;39.12;100809.09;4988331;28;20204;-83
2022/06/21 10:42:50;;;;;;;4.63;1.30;;;;;;;22.87;38.48;100808.22;4978287;28;20717;-84
2022/06/21 10:45:33;;;;;;;2.88;1.10;;;;;;;22.89;37.42;100800.78;4995261;28;20227;-83
2022/06/21 10:48:30;;;;;;;2.10;0.80;;;;;;;22.81;37.11;100799.75;4996824;28;20627;-83
2022/06/21 10:51:09;;;;;;;4.53;1.45;;;;;;;22.89;37.81;100801.63;4995072;28;20710;-83
2022/06/21 10:54:13;;;;;;;5.10;1.27;;;;;;;23.01;37.57;100811.09;4989919;28;20230;-84
2022/06/21 10:57:13;;;;;;;1.83;0.85;;;;;;;23.12;37.22;100788.13;4984306;28;20199;-84
2022/06/21 11:03:02;;;;;;;3.67;1.27;;;;;;;23.34;37.19;100797.38;4989562;28;20319;-84
2022/06/21 11:05:38;;;;;;;3.88;1.00;;;;;;;23.46;37.40;100782.41;4988017;28;20214;-84
2022/06/21 11:08:14;;;;;;;2.67;0.95;;;;;;;23.58;37.14;100780.16;4989294;28;20198;-84
2022/06/21 11:10:46;;;;;;;4.00;1.30;;;;;;;23.65;36.85;100783.84;4986245;28;20203;-84
2022/06/21 11:13:16;;;;;;;1.75;0.85;;;;;;;23.67;36.14;100779.06;4985674;28;20237;-84
2022/06/21 11:15:55;;;;;;;1.80;0.80;;;;;;;23.72;35.51;100782.09;4990180;28;20204;-84
2022/06/21 11:18:39;;;;;;;1.60;0.90;;;;;;;23.77;35.08;100779.69;4989897;28;20591;-84
2022/06/21 11:21:17;;;;;;;2.15;0.85;;;;;;;23.87;35.36;100770.28;4978526;28;20216;-84
2022/06/21 11:23:57;;;;;;;4.15;1.10;;;;;;;23.97;34.84;100767.34;4993122;28;20240;-83
2022/06/21 11:26:32;;;;;;;2.65;0.90;;;;;;;24.05;35.21;100775.41;4996279;28;20203;-83
2022/06/21 11:29:08;;;;;;;4.18;1.13;;;;;;;24.12;35.19;100772.81;4994825;28;20190;-84
2022/06/21 11:31:46;;;;;;;2.08;1.00;;;;;;;24.22;35.16;100760.66;4989394;28;20278;-83
2022/06/21 11:34:26;;;;;;;4.18;1.05;;;;;;;24.26;34.94;100752.16;4986633;28;20226;-83
2022/06/21 11:37:03;;;;;;;2.30;1.02;;;;;;;24.31;35.50;100757.91;4989843;28;20217;-84
2022/06/21 11:39:36;;;;;;;4.20;1.10;;;;;;;24.33;35.45;100745.81;4987228;28;20211;-83
2022/06/21 11:42:10;;;;;;;4.55;1.13;;;;;;;24.41;35.21;100736.69;4982663;28;20215;-84
2022/06/21 11:44:52;;;;;;;4.30;1.20;;;;;;;24.50;35.23;100744.63;4982173;28;20206;-84
2022/06/21 11:47:28;;;;;;;3.70;0.80;;;;;;;24.56;35.06;100735.69;4993546;28;20213;-84
2022/06/21 11:50:06;;;;;;;1.33;0.70;;;;;;;24.65;34.64;100731.03;4984551;28;20207;-83
2022/06/21 11:53:00;;;;;;;2.10;0.70;;;;;;;24.75;34.28;100728.84;4983333;28;20223;-83
2022/06/21 11:55:33;;;;;;;4.88;1.00;;;;;;;24.86;34.52;100722.97;4981700;28;20208;-83
2022/06/21 11:58:06;;;;;;;3.15;1.08;;;;;;;24.92;33.73;100729.50;4978739;28;20211;-83
2022/06/21 12:00:39;;;;;;;2.67;0.90;;;;;;;24.95;34.10;100734.63;4987657;28;20551;-84
2022/06/21 12:03:10;;;;;;;3.40;0.80;;;;;;;24.96;33.40;100736.31;4987719;28;20775;-83
2022/06/21 12:05:45;;;;;;;3.67;0.90;;;;;;;25.00;33.53;100731.34;4987275;28;20230;-83
2022/06/21 12:08:19;;;;;;;8.55;1.20;;;;;;;25.03;33.05;100729.09;4982888;28;20204;-83